Meath Environmental Platform

Observations for Trim Market St

Time AQI Temp °C Hum % Pres Pa CO μg/m³ H₂S μg/m³ NO μg/m³ NO₂ μg/m³ O₃ μg/m³ SO₂ μg/m³ PM1 μg/m³ PM2.5 μg/m³ PM10 μg/m³
Friday 21 August 2026
20:28 3 18.3 58 57,198 0.27 0 2.93 30.77 41.44 0 1.43 3.12 4.74
20:27 3 18.3 58 57,138 0.52 0 3.59 55.94 16.81 0 1.43 3.13 4.03
20:26 3 18.4 58 57,065 0.13 0 3.62 22.45 60.34 0 0 2.12 4.03
20:24 3 18.4 58 56,924 0.13 0 3.82 18.19 58.07 0 0 2.13 4.02
20:21 3 18.5 57 56,762 0.38 0 6.82 12.3 59.17 0 0 2.14 4.72
20:20 3 18.6 57 56,706 5.88 37.1 6.76 31.67 43.98 0 0 1.64 1.9
20:14 3 18.7 57 56,450 0.08 0 1.32 15.31 59.82 0 0 1.67 2.58
20:13 3 18.7 56 56,414 0.08 0 1.33 14.16 57.5 0 0 2.17 2.58
20:09 3 18.8 56 56,349 0.02 0 1.46 10.39 62.59 0 0 1.67 1.87
20:08 3 18.8 56 56,341 0.03 0 1.38 13.4 59.98 0 0 2.17 2.58
20:02 3 18.9 56 56,260 0.06 0 1.43 12.15 59.57 0 0 2.17 3.29
20:01 3 18.9 56 56,297 0.21 0 2.1 16.54 54.93 0 0 1.67 1.87
20:00 3 18.9 56 56,339 0.21 0 1.9 14.55 57.94 0 0 2.68 3.29
19:59 3 18.9 56 56,378 0.09 0 2.73 11.27 60.08 0 0 1.67 2.58
19:58 3 18.9 57 56,434 0.13 0 3.22 15.46 55.98 0 0.71 2.68 3.29
19:57 3 18.9 57 56,496 0.25 0 3.52 18.35 52.13 0 0.71 2.17 2.58
19:56 3 18.9 57 56,554 0.27 0 3.6 18.37 51.63 0 0 1.66 1.88
19:55 3 19 57 56,621 0.16 0 3.52 22.9 45.19 0 0.71 2.67 3.3
19:54 3 19 57 56,695 0.09 0 3.53 31.71 37.45 0 0 2.16 2.59
19:53 3 19 57 56,735 0.13 0 3.5 30.25 43.06 0 0 2.16 2.59